カーナーク/チューレ空軍基地 の空港の天気 - METARとTAF

チューレ空軍基地 ( BGTL / THU ) - グリーンランド カーナーク
飛行場実況気象(Metar)
観測時間04/26 07:56 ADT (04/26 10:56 UTC)
風向・風速静穏 0m/s
視程6000m
天気現象弱い雪
全天の4割程度の雲 雲底高度 90m
全天を覆う雲 雲底高度 910m
気温-12.8℃
湿度88%
気圧1011.5hPa
METARBGTL 261056Z 00000KT 6000 -SN SCT003 OVC030 M13/M14 A2990 RMK AO2A SNB40 PRESFR SLP115 T11281144 RVRNO TSNO CHINO RWY26 $
過去の天気等 Google飛行場航空写真 Wunderground天気予報

過去48時間のMETAR

飛行場予報(TAF)
データがありません